Time;durP1;ratioP1;P1;durP2;ratioP2;P2;SDS_P1;SDS_P2;PMS_P1;PMS_P2;Temp;Humidity;BMP_temperature;BMP_pressure;BME280_temperature;BME280_humidity;BME280_pressure;Samples;Min_cycle;Max_cycle;Signal;HPM_P1;HPM_P2
2022/10/26 00:00:27;;;;;;;39.60;18.17;;;19.70;95.80;;;;;;5035659;28;20033;-78
2022/10/26 00:02:55;;;;;;;41.60;19.20;;;19.60;95.70;;;;;;5035173;28;20084;-83
2022/10/26 00:05:22;;;;;;;36.38;18.52;;;19.60;95.70;;;;;;5035036;28;20026;-80
2022/10/26 00:07:49;;;;;;;42.22;17.45;;;19.60;95.50;;;;;;5035262;28;20108;-79
2022/10/26 00:10:15;;;;;;;41.40;18.27;;;19.50;95.50;;;;;;5038493;28;20041;-80
2022/10/26 00:12:40;;;;;;;47.88;19.00;;;19.50;95.50;;;;;;5039040;28;20505;-80
2022/10/26 00:15:07;;;;;;;47.38;18.63;;;19.50;95.50;;;;;;5038111;28;20064;-81
2022/10/26 00:17:33;;;;;;;38.10;18.73;;;19.50;95.50;;;;;;5038701;28;20021;-79
2022/10/26 00:19:59;;;;;;;48.53;17.65;;;19.50;95.40;;;;;;5038481;28;20029;-80
2022/10/26 00:22:26;;;;;;;41.63;17.75;;;19.50;95.40;;;;;;5037168;28;20033;-84
2022/10/26 00:24:52;;;;;;;40.10;18.25;;;19.40;95.40;;;;;;5036702;28;20017;-79
2022/10/26 00:27:17;;;;;;;37.30;18.35;;;19.40;95.50;;;;;;5036222;28;20037;-81
2022/10/26 00:29:43;;;;;;;38.05;17.83;;;19.40;95.50;;;;;;5035975;28;20471;-80
2022/10/26 00:32:09;;;;;;;47.38;17.70;;;19.40;95.50;;;;;;5035359;28;20536;-80
2022/10/26 00:34:35;;;;;;;45.00;17.48;;;19.30;95.40;;;;;;5034279;28;20155;-78
2022/10/26 00:37:00;;;;;;;41.47;16.67;;;19.40;95.40;;;;;;5032916;28;20521;-80
2022/10/26 00:39:26;;;;;;;39.78;15.27;;;19.30;95.30;;;;;;5034664;28;20029;-80
2022/10/26 00:41:52;;;;;;;39.67;16.17;;;19.30;95.20;;;;;;5033839;28;20080;-78
2022/10/26 00:44:42;;;;;;;47.08;16.42;;;19.30;95.10;;;;;;5037525;28;20031;-80
2022/10/26 00:47:16;;;;;;;41.70;15.38;;;19.30;94.90;;;;;;5035957;28;20036;-79
2022/10/26 00:49:46;;;;;;;44.17;15.63;;;19.20;94.70;;;;;;5037990;28;20099;-79
2022/10/26 00:52:14;;;;;;;43.42;15.27;;;19.10;94.50;;;;;;5036627;28;20032;-80
2022/10/26 00:54:40;;;;;;;41.30;15.20;;;19.10;94.50;;;;;;5034774;28;20032;-80
2022/10/26 00:57:06;;;;;;;36.55;14.73;;;19.10;94.50;;;;;;5034949;28;20025;-79
2022/10/26 00:59:32;;;;;;;47.55;15.02;;;19.10;94.40;;;;;;5034891;28;20059;-80
2022/10/26 01:01:58;;;;;;;44.72;14.68;;;19.10;94.20;;;;;;5035576;28;20022;-80
2022/10/26 01:04:24;;;;;;;48.72;14.27;;;19.10;94.20;;;;;;5035968;28;20025;-79
2022/10/26 01:06:51;;;;;;;40.45;14.50;;;19.10;94.10;;;;;;5035325;28;20092;-86
2022/10/26 01:09:19;;;;;;;39.60;14.73;;;19.00;94.20;;;;;;5034296;28;20030;-85
2022/10/26 01:11:45;;;;;;;38.00;15.13;;;19.00;94.20;;;;;;5032804;28;20041;-84
2022/10/26 01:14:12;;;;;;;38.28;14.32;;;19.00;94.10;;;;;;5034300;28;20494;-83
2022/10/26 01:16:44;;;;;;;39.13;15.57;;;19.00;94.20;;;;;;5034306;28;20029;-84
2022/10/26 01:19:24;;;;;;;41.30;15.40;;;19.00;94.20;;;;;;5035559;28;20028;-83
2022/10/26 01:22:23;;;;;;;39.95;15.32;;;18.90;94.20;;;;;;5035179;28;20033;-85
2022/10/26 01:25:20;;;;;;;40.13;15.30;;;18.90;94.30;;;;;;5033768;28;20041;-82
2022/10/26 01:27:50;;;;;;;33.28;13.73;;;18.90;94.20;;;;;;5007234;28;20115;-83
2022/10/26 01:30:15;;;;;;;42.97;15.55;;;18.90;94.40;;;;;;5037219;28;20171;-84
2022/10/26 01:32:44;;;;;;;41.17;15.02;;;18.90;94.30;;;;;;5036380;28;20474;-84
2022/10/26 01:35:33;;;;;;;32.05;14.90;;;18.90;94.20;;;;;;5034819;28;20104;-86
2022/10/26 01:38:05;;;;;;;35.08;15.05;;;18.90;94.40;;;;;;5033316;28;20037;-84
2022/10/26 01:40:36;;;;;;;35.83;15.60;;;18.80;94.40;;;;;;5033143;28;20478;-82
2022/10/26 01:43:07;;;;;;;37.05;15.98;;;18.80;94.50;;;;;;5033324;28;20025;-81
2022/10/26 01:45:36;;;;;;;38.17;14.98;;;18.80;94.50;;;;;;5032738;28;20033;-82
2022/10/26 01:48:03;;;;;;;44.22;14.05;;;18.70;94.50;;;;;;5034852;28;20022;-83
2022/10/26 01:50:30;;;;;;;45.22;15.98;;;18.60;94.50;;;;;;5037377;28;20474;-81
2022/10/26 01:52:56;;;;;;;42.45;15.27;;;18.60;94.60;;;;;;5037675;28;20017;-80
2022/10/26 01:55:37;;;;;;;39.78;14.35;;;18.50;94.50;;;;;;5037170;28;20087;-82
2022/10/26 01:58:19;;;;;;;41.45;14.18;;;18.60;94.60;;;;;;5035807;28;20474;-82
2022/10/26 02:01:16;;;;;;;33.90;14.23;;;18.50;94.50;;;;;;5037026;28;20048;-79
2022/10/26 02:03:48;;;;;;;39.90;14.95;;;18.50;94.50;;;;;;5034241;28;20053;-79
2022/10/26 02:06:48;;;;;;;47.88;15.20;;;18.50;94.50;;;;;;5036885;28;20025;-82
2022/10/26 02:09:41;;;;;;;41.88;14.25;;;18.50;94.60;;;;;;5033873;28;20525;-81
2022/10/26 02:12:22;;;;;;;39.08;14.45;;;18.40;94.60;;;;;;5037121;28;20032;-81
2022/10/26 02:14:53;;;;;;;35.13;14.52;;;18.40;94.60;;;;;;5040432;28;20025;-78
2022/10/26 02:17:38;;;;;;;29.67;13.65;;;18.40;94.60;;;;;;5038239;28;20057;-81
2022/10/26 02:20:10;;;;;;;41.00;15.20;;;18.50;94.70;;;;;;5037189;28;20511;-82
2022/10/26 02:22:46;;;;;;;43.33;13.48;;;18.50;94.70;;;;;;5036720;28;20104;-82
2022/10/26 02:25:18;;;;;;;43.15;15.25;;;18.50;94.70;;;;;;5037077;28;20017;-82
2022/10/26 02:27:49;;;;;;;39.13;14.80;;;18.50;94.50;;;;;;5036063;28;20099;-80
2022/10/26 02:30:15;;;;;;;36.03;14.02;;;18.50;94.50;;;;;;5036648;28;20069;-79
2022/10/26 02:32:47;;;;;;;43.13;15.70;;;18.50;94.50;;;;;;5036627;28;20056;-80
2022/10/26 02:35:14;;;;;;;57.35;14.55;;;18.50;94.60;;;;;;5035520;28;20536;-80
2022/10/26 02:37:42;;;;;;;44.25;15.52;;;18.50;94.50;;;;;;5038640;28;20121;-80
2022/10/26 02:40:13;;;;;;;50.78;15.15;;;18.50;94.50;;;;;;5039298;28;20087;-79
2022/10/26 02:42:44;;;;;;;30.52;14.90;;;18.60;94.70;;;;;;5038601;28;20486;-81
2022/10/26 02:45:15;;;;;;;41.33;16.13;;;18.50;94.70;;;;;;5039552;28;20028;-83
2022/10/26 02:47:41;;;;;;;44.47;15.88;;;18.50;94.80;;;;;;5040103;28;20033;-79
2022/10/26 02:50:07;;;;;;;48.70;16.60;;;18.50;94.90;;;;;;5042465;28;20067;-79
2022/10/26 02:52:47;;;;;;;52.35;15.55;;;18.50;95.00;;;;;;5043031;28;20085;-79
2022/10/26 02:55:31;;;;;;;41.15;15.70;;;18.50;95.00;;;;;;5040748;28;20022;-81
2022/10/26 02:58:11;;;;;;;36.13;15.07;;;18.50;94.80;;;;;;5038842;28;20056;-79
2022/10/26 03:00:41;;;;;;;42.70;16.08;;;18.50;95.00;;;;;;5034648;28;20033;-78
2022/10/26 03:03:07;;;;;;;41.13;17.35;;;18.40;95.00;;;;;;5035802;28;20025;-79
2022/10/26 03:05:35;;;;;;;48.22;16.80;;;18.40;95.00;;;;;;5036547;28;20356;-79
2022/10/26 03:08:02;;;;;;;39.42;13.95;;;18.40;95.10;;;;;;5018519;28;20026;-79
2022/10/26 03:10:28;;;;;;;37.58;15.10;;;18.40;95.20;;;;;;5035690;28;20037;-79
2022/10/26 03:12:57;;;;;;;39.83;16.10;;;18.40;95.20;;;;;;5036400;28;20451;-78
2022/10/26 03:15:23;;;;;;;41.22;15.27;;;18.40;95.20;;;;;;5037868;28;20437;-79
2022/10/26 03:17:48;;;;;;;50.05;15.63;;;18.30;95.10;;;;;;5037711;28;20053;-80
2022/10/26 03:20:16;;;;;;;39.35;15.50;;;18.30;95.10;;;;;;5036276;28;20101;-82
2022/10/26 03:22:42;;;;;;;43.00;14.85;;;18.30;95.20;;;;;;5034255;28;20025;-83
2022/10/26 03:25:08;;;;;;;38.28;14.68;;;18.30;95.30;;;;;;5035440;28;20383;-82
2022/10/26 03:27:34;;;;;;;34.80;14.38;;;18.30;95.10;;;;;;5035173;28;20124;-78
2022/10/26 03:29:59;;;;;;;47.20;14.82;;;18.30;95.10;;;;;;5035025;28;20378;-81
2022/10/26 03:32:25;;;;;;;42.45;14.05;;;18.30;94.90;;;;;;5035522;28;20056;-84
2022/10/26 03:34:51;;;;;;;42.78;13.15;;;18.30;94.70;;;;;;5036913;28;20025;-83
2022/10/26 03:37:17;;;;;;;46.33;13.75;;;18.20;94.40;;;;;;5036422;28;20030;-79
2022/10/26 03:39:42;;;;;;;49.58;13.90;;;18.20;94.20;;;;;;5037723;28;20017;-83
2022/10/26 03:42:08;;;;;;;48.65;13.45;;;18.20;94.10;;;;;;5036687;28;20053;-83
2022/10/26 03:44:34;;;;;;;45.53;13.65;;;18.20;93.90;;;;;;5035585;28;20022;-82
2022/10/26 03:46:59;;;;;;;63.13;13.50;;;18.20;93.80;;;;;;5035163;28;20154;-83
2022/10/26 03:49:25;;;;;;;49.40;14.18;;;18.20;93.60;;;;;;5034922;28;20026;-82
2022/10/26 03:51:51;;;;;;;49.35;12.70;;;18.20;93.40;;;;;;5035300;28;20443;-82
2022/10/26 03:54:17;;;;;;;40.80;12.02;;;18.20;93.50;;;;;;5035110;28;20041;-83
2022/10/26 03:56:43;;;;;;;49.17;12.85;;;18.20;93.40;;;;;;5036941;28;20105;-81
2022/10/26 03:59:08;;;;;;;62.35;13.90;;;18.20;93.30;;;;;;5037391;28;20061;-82
2022/10/26 04:01:34;;;;;;;48.78;13.52;;;18.20;93.10;;;;;;5037277;28;20106;-82
2022/10/26 04:04:00;;;;;;;42.95;13.32;;;18.20;93.00;;;;;;5034829;28;20029;-80
2022/10/26 04:06:25;;;;;;;45.25;13.18;;;18.30;93.00;;;;;;5035178;28;20104;-80
2022/10/26 04:08:56;;;;;;;49.88;13.25;;;18.30;92.80;;;;;;5035197;28;20025;-81
2022/10/26 04:11:22;;;;;;;51.97;12.50;;;18.30;92.70;;;;;;5034970;28;20052;-83
2022/10/26 04:13:48;;;;;;;44.22;12.95;;;18.40;92.60;;;;;;5033416;28;20021;-83
2022/10/26 04:16:14;;;;;;;55.10;13.75;;;18.40;92.50;;;;;;5033226;28;20057;-81
2022/10/26 04:18:39;;;;;;;45.80;13.38;;;18.40;92.50;;;;;;5034783;28;20010;-81
2022/10/26 04:21:05;;;;;;;54.03;14.13;;;18.50;92.70;;;;;;5034689;28;20470;-81
2022/10/26 04:23:30;;;;;;;42.97;13.63;;;18.50;92.70;;;;;;5034626;28;20133;-83
2022/10/26 04:25:57;;;;;;;49.28;14.32;;;18.50;92.70;;;;;;5034922;28;20032;-84
2022/10/26 04:28:23;;;;;;;50.30;14.35;;;18.60;92.80;;;;;;5035554;28;20051;-84
2022/10/26 04:30:49;;;;;;;56.72;16.33;;;18.60;92.80;;;;;;5034658;28;20037;-84
2022/10/26 04:33:14;;;;;;;48.35;14.73;;;18.60;92.90;;;;;;5034625;28;20033;-82
2022/10/26 04:35:41;;;;;;;55.53;15.18;;;18.60;93.00;;;;;;5034838;28;20081;-83
2022/10/26 04:38:08;;;;;;;56.33;14.88;;;18.60;93.20;;;;;;5034789;28;20024;-85
2022/10/26 04:40:34;;;;;;;52.95;16.73;;;18.60;93.30;;;;;;5038004;28;20040;-81
2022/10/26 04:43:00;;;;;;;44.58;15.70;;;18.60;93.60;;;;;;5038480;28;20056;-80
2022/10/26 04:45:29;;;;;;;48.90;16.55;;;18.60;93.60;;;;;;5040197;28;20037;-83
2022/10/26 04:48:06;;;;;;;55.25;15.55;;;18.60;93.60;;;;;;5039300;28;20021;-82
2022/10/26 04:50:32;;;;;;;54.60;15.88;;;18.60;93.70;;;;;;5038984;28;20037;-85
2022/10/26 04:52:58;;;;;;;46.75;15.45;;;18.60;93.70;;;;;;5041276;28;20101;-83
2022/10/26 04:55:24;;;;;;;57.78;15.80;;;18.60;93.80;;;;;;5040401;28;20053;-80
2022/10/26 04:57:49;;;;;;;60.35;17.92;;;18.70;93.80;;;;;;5038481;28;20030;-84
2022/10/26 05:00:15;;;;;;;51.20;17.90;;;18.70;94.00;;;;;;5043891;28;20044;-84
2022/10/26 05:02:41;;;;;;;65.25;18.95;;;18.60;94.20;;;;;;5038586;28;20550;-84
2022/10/26 05:05:07;;;;;;;56.60;19.77;;;18.60;94.50;;;;;;5042307;28;20033;-87
2022/10/26 05:07:33;;;;;;;62.28;19.42;;;18.60;94.70;;;;;;5036687;28;20370;-85
2022/10/26 05:09:58;;;;;;;58.38;19.92;;;18.60;94.90;;;;;;5042161;28;20461;-84
2022/10/26 05:12:24;;;;;;;59.00;19.05;;;18.60;95.00;;;;;;5044333;28;20666;-83
2022/10/26 05:14:50;;;;;;;57.35;18.20;;;18.60;95.10;;;;;;5041345;28;20033;-85
2022/10/26 05:17:15;;;;;;;59.08;17.10;;;18.60;95.10;;;;;;5037843;28;20032;-84
2022/10/26 05:19:41;;;;;;;75.45;18.13;;;18.60;94.90;;;;;;5041501;28;20026;-82
2022/10/26 05:22:07;;;;;;;65.75;17.90;;;18.60;94.90;;;;;;5045830;28;20486;-85
2022/10/26 05:24:33;;;;;;;55.22;17.08;;;18.60;94.80;;;;;;5040264;28;20418;-83
2022/10/26 05:26:59;;;;;;;58.45;17.48;;;18.60;94.90;;;;;;5036431;28;20025;-78
2022/10/26 05:29:24;;;;;;;54.05;17.25;;;18.60;94.90;;;;;;5036915;28;20093;-81
2022/10/26 05:31:50;;;;;;;48.90;17.75;;;18.60;94.90;;;;;;5036528;28;20026;-79
2022/10/26 05:34:16;;;;;;;52.92;18.60;;;18.60;95.00;;;;;;5034713;28;20065;-83
2022/10/26 05:36:42;;;;;;;52.35;18.48;;;18.60;95.20;;;;;;5034260;28;20028;-82
2022/10/26 05:39:08;;;;;;;46.83;17.48;;;18.60;95.40;;;;;;5034400;28;20032;-82
2022/10/26 05:41:33;;;;;;;42.92;16.98;;;18.60;95.50;;;;;;5018987;28;20018;-78
2022/10/26 05:43:59;;;;;;;51.88;16.73;;;18.50;95.50;;;;;;5018116;28;20402;-83
2022/10/26 05:46:25;;;;;;;53.78;17.13;;;18.50;95.50;;;;;;5013046;28;20080;-84
2022/10/26 05:48:51;;;;;;;46.90;16.00;;;18.50;95.50;;;;;;5015287;28;20072;-83
2022/10/26 05:51:18;;;;;;;56.30;16.35;;;18.40;95.50;;;;;;5012743;28;20113;-78
2022/10/26 05:53:44;;;;;;;42.58;16.35;;;18.40;95.50;;;;;;5014268;28;20030;-82
2022/10/26 05:56:18;;;;;;;42.55;15.57;;;18.40;95.60;;;;;;5014046;28;20072;-79
2022/10/26 05:58:45;;;;;;;45.17;17.02;;;18.40;95.70;;;;;;5013397;28;20139;-83
2022/10/26 06:01:16;;;;;;;47.17;17.05;;;18.40;95.70;;;;;;5023871;28;20543;-77
2022/10/26 06:04:07;;;;;;;48.05;17.60;;;18.40;95.80;;;;;;5026279;28;20070;-87
2022/10/26 06:06:40;;;;;;;50.35;17.92;;;18.40;95.70;;;;;;5041072;28;20074;-82
2022/10/26 06:09:11;;;;;;;47.08;19.05;;;18.40;95.90;;;;;;5042822;28;20025;-85
2022/10/26 06:11:37;;;;;;;53.20;19.05;;;18.40;96.00;;;;;;5041121;28;20115;-81
2022/10/26 06:14:03;;;;;;;45.00;17.42;;;18.30;96.20;;;;;;5036000;28;20387;-85
2022/10/26 06:17:00;;;;;;;49.90;18.17;;;18.30;96.30;;;;;;5034096;28;20022;-82
2022/10/26 06:19:35;;;;;;;44.53;19.35;;;18.30;96.40;;;;;;5033920;28;20049;-83
2022/10/26 06:22:09;;;;;;;48.30;20.08;;;18.30;96.50;;;;;;5033706;28;20079;-83
2022/10/26 06:24:38;;;;;;;43.92;19.52;;;18.30;96.70;;;;;;5032937;28;20038;-85
2022/10/26 06:27:26;;;;;;;50.17;19.25;;;18.30;96.90;;;;;;5033464;28;20378;-85
2022/10/26 06:29:55;;;;;;;37.55;17.45;;;18.30;96.80;;;;;;5035282;28;20035;-86
2022/10/26 06:32:23;;;;;;;45.67;18.10;;;18.30;96.90;;;;;;5034492;28;20026;-83
2022/10/26 06:34:51;;;;;;;49.03;17.63;;;18.30;97.10;;;;;;5034343;28;20344;-81
2022/10/26 06:37:18;;;;;;;37.47;17.48;;;18.40;97.00;;;;;;5018868;28;20018;-82
2022/10/26 06:39:46;;;;;;;48.33;18.55;;;18.40;97.00;;;;;;5017234;28;20368;-81
2022/10/26 06:42:12;;;;;;;54.90;20.30;;;18.40;97.00;;;;;;5018781;28;20080;-80
2022/10/26 06:44:38;;;;;;;53.22;20.15;;;18.50;97.00;;;;;;5018736;28;20324;-81
2022/10/26 06:47:22;;;;;;;51.47;21.23;;;18.50;96.90;;;;;;5016813;28;20033;-83
2022/10/26 06:50:23;;;;;;;47.58;20.50;;;18.50;97.10;;;;;;5017589;28;20102;-80
2022/10/26 06:53:00;;;;;;;64.82;20.70;;;18.60;97.10;;;;;;4998896;28;20037;-81
2022/10/26 06:55:30;;;;;;;60.50;20.80;;;18.60;97.00;;;;;;5017813;28;20036;-81
2022/10/26 06:57:55;;;;;;;56.15;20.25;;;18.70;96.90;;;;;;5016869;28;20467;-82
2022/10/26 07:00:24;;;;;;;57.67;20.38;;;18.80;96.90;;;;;;5016674;28;20044;-82
2022/10/26 07:02:49;;;;;;;56.50;19.58;;;18.90;96.70;;;;;;5016787;28;20026;-81
2022/10/26 07:05:16;;;;;;;57.63;21.27;;;19.00;96.60;;;;;;5016500;28;20052;-82
2022/10/26 07:07:43;;;;;;;61.40;21.17;;;19.10;96.50;;;;;;5018427;28;20030;-80
2022/10/26 07:10:11;;;;;;;57.38;19.40;;;19.10;96.30;;;;;;5018565;28;20038;-79
2022/10/26 07:12:37;;;;;;;57.78;20.35;;;19.10;96.30;;;;;;5017341;28;20092;-80
2022/10/26 07:15:04;;;;;;;45.90;20.15;;;19.10;96.20;;;;;;5016067;28;20036;-80
2022/10/26 07:17:30;;;;;;;49.90;19.83;;;19.20;96.20;;;;;;5016409;28;20042;-81
2022/10/26 07:19:56;;;;;;;46.00;20.48;;;19.20;96.10;;;;;;5016536;28;20108;-82
2022/10/26 07:22:24;;;;;;;47.95;19.95;;;19.20;96.00;;;;;;5016368;28;20018;-82
2022/10/26 07:24:50;;;;;;;49.50;19.77;;;19.10;96.10;;;;;;5018820;28;20092;-82
2022/10/26 07:27:20;;;;;;;44.03;17.60;;;19.20;96.20;;;;;;5016006;28;20022;-82
2022/10/26 07:29:46;;;;;;;43.33;18.13;;;19.30;96.10;;;;;;5019312;28;20029;-80
2022/10/26 07:32:11;;;;;;;44.90;16.98;;;19.40;96.00;;;;;;5023080;28;20022;-83
2022/10/26 07:34:37;;;;;;;38.13;16.10;;;19.40;95.70;;;;;;5017076;28;20022;-81
2022/10/26 07:37:03;;;;;;;42.72;16.80;;;19.40;95.70;;;;;;5015978;28;20352;-84
2022/10/26 07:39:31;;;;;;;41.72;16.52;;;19.40;95.50;;;;;;5015866;28;20447;-83
2022/10/26 07:41:57;;;;;;;31.55;16.42;;;19.40;95.50;;;;;;5015534;28;20049;-83
2022/10/26 07:44:23;;;;;;;35.05;16.10;;;19.40;95.50;;;;;;5018716;28;20072;-84
2022/10/26 07:46:48;;;;;;;38.90;16.25;;;19.40;95.60;;;;;;5019401;28;20026;-83
2022/10/26 07:49:14;;;;;;;32.67;16.38;;;19.30;95.20;;;;;;5020033;28;20220;-83
2022/10/26 07:51:40;;;;;;;31.27;17.45;;;19.30;95.30;;;;;;5014925;28;20545;-83
2022/10/26 07:54:06;;;;;;;32.75;17.17;;;19.30;95.20;;;;;;5015591;28;20029;-83
2022/10/26 07:56:31;;;;;;;35.28;16.27;;;19.30;95.10;;;;;;5014114;28;20133;-83
2022/10/26 07:58:57;;;;;;;35.70;15.13;;;19.30;95.10;;;;;;5015527;28;20248;-81
2022/10/26 08:01:23;;;;;;;32.58;15.00;;;19.30;94.90;;;;;;5015959;28;20030;-82
2022/10/26 08:03:53;;;;;;;33.00;16.52;;;19.30;94.90;;;;;;5015854;28;20029;-84
2022/10/26 08:06:20;;;;;;;31.08;16.33;;;19.20;94.80;;;;;;5015896;28;20022;-84
2022/10/26 08:08:46;;;;;;;31.98;15.98;;;19.20;94.80;;;;;;5015608;28;20037;-85
2022/10/26 08:11:12;;;;;;;50.30;20.33;;;19.20;94.60;;;;;;5017173;28;20038;-82
2022/10/26 08:13:38;;;;;;;39.00;16.90;;;19.20;94.80;;;;;;5017139;28;20022;-82
2022/10/26 08:16:05;;;;;;;49.17;21.00;;;19.20;94.60;;;;;;5015881;28;20056;-84
2022/10/26 08:18:32;;;;;;;46.00;21.38;;;19.20;94.60;;;;;;5018786;28;20076;-81
2022/10/26 08:21:06;;;;;;;50.10;22.00;;;19.30;94.50;;;;;;5016080;28;20502;-83
2022/10/26 08:23:32;;;;;;;44.92;21.23;;;19.30;94.60;;;;;;5016925;28;20060;-83
2022/10/26 08:26:02;;;;;;;37.03;18.70;;;19.40;94.30;;;;;;5020398;28;20026;-83
2022/10/26 08:28:28;;;;;;;39.55;17.90;;;19.40;94.30;;;;;;5021042;28;20042;-82
2022/10/26 08:30:54;;;;;;;40.08;17.15;;;19.50;94.20;;;;;;5019872;28;20052;-80
2022/10/26 08:33:22;;;;;;;31.35;14.95;;;19.50;93.90;;;;;;5020212;28;20041;-84
2022/10/26 08:35:48;;;;;;;42.20;14.82;;;19.60;93.90;;;;;;5017853;28;20371;-83
2022/10/26 08:38:14;;;;;;;39.88;14.23;;;19.60;93.80;;;;;;5016588;28;20048;-81
2022/10/26 08:40:42;;;;;;;36.38;13.50;;;19.70;93.60;;;;;;5020813;28;20033;-81
2022/10/26 08:43:38;;;;;;;39.42;12.93;;;19.70;93.50;;;;;;5022788;28;20080;-81
2022/10/26 08:46:13;;;;;;;37.20;14.23;;;19.80;93.40;;;;;;5020479;28;20029;-83
2022/10/26 08:48:46;;;;;;;33.78;13.23;;;19.80;93.20;;;;;;5021148;28;20018;-82
2022/10/26 08:51:23;;;;;;;42.25;12.88;;;19.90;93.10;;;;;;5020384;28;20042;-83
2022/10/26 08:53:58;;;;;;;32.80;12.52;;;19.90;92.80;;;;;;5020400;28;20081;-83
2022/10/26 08:56:27;;;;;;;33.58;11.98;;;20.00;93.00;;;;;;5015177;28;20042;-80
2022/10/26 08:59:07;;;;;;;43.88;14.93;;;20.10;92.40;;;;;;5017185;28;20050;-85
2022/10/26 09:01:33;;;;;;;49.08;13.45;;;20.20;92.20;;;;;;5022380;28;20080;-82
2022/10/26 09:04:02;;;;;;;28.83;11.57;;;20.20;92.00;;;;;;5023739;28;20076;-81
2022/10/26 09:06:32;;;;;;;43.47;12.95;;;20.20;92.00;;;;;;5024286;28;20033;-84
2022/10/26 09:09:16;;;;;;;39.25;12.02;;;20.30;91.80;;;;;;5025084;28;20022;-83
2022/10/26 09:11:57;;;;;;;47.13;12.98;;;20.40;91.80;;;;;;5024913;28;20041;-86
2022/10/26 09:14:46;;;;;;;42.10;12.68;;;20.40;91.70;;;;;;5015992;28;20034;-82
2022/10/26 09:17:20;;;;;;;52.58;14.30;;;20.50;91.50;;;;;;5018037;28;20065;-83
2022/10/26 09:20:16;;;;;;;33.75;12.18;;;20.60;91.40;;;;;;5018596;28;20029;-83
2022/10/26 09:23:07;;;;;;;45.35;13.88;;;20.70;91.30;;;;;;5019182;28;20045;-81
2022/10/26 09:25:38;;;;;;;49.63;14.95;;;20.80;91.10;;;;;;5021408;28;20036;-82
2022/10/26 09:28:07;;;;;;;42.58;13.02;;;20.90;90.70;;;;;;5021280;28;20018;-84
2022/10/26 09:30:34;;;;;;;41.03;12.52;;;21.00;90.50;;;;;;5016988;28;20450;-84
2022/10/26 09:33:21;;;;;;;39.95;11.20;;;21.10;90.20;;;;;;5015368;28;20028;-84
2022/10/26 09:35:54;;;;;;;32.70;11.18;;;21.30;90.30;;;;;;5019175;28;20030;-81
2022/10/26 09:38:20;;;;;;;36.72;11.88;;;21.40;90.40;;;;;;5021099;28;20076;-84
2022/10/26 09:41:13;;;;;;;35.78;11.52;;;21.50;90.00;;;;;;5016243;28;20018;-84
2022/10/26 09:43:49;;;;;;;50.90;13.83;;;21.70;90.10;;;;;;5016119;28;20032;-83
2022/10/26 09:46:20;;;;;;;48.40;12.85;;;21.80;89.60;;;;;;5015474;28;20110;-84
2022/10/26 09:48:57;;;;;;;32.00;11.32;;;21.80;89.00;;;;;;5014665;28;20534;-83
2022/10/26 09:51:25;;;;;;;43.33;12.52;;;21.90;89.20;;;;;;5014301;28;20041;-85
2022/10/26 09:53:55;;;;;;;36.60;11.25;;;21.90;89.20;;;;;;5015354;28;20096;-84
2022/10/26 09:56:22;;;;;;;48.10;14.65;;;22.00;89.50;;;;;;4997687;28;20030;-85
2022/10/26 09:58:51;;;;;;;45.50;12.00;;;22.00;89.60;;;;;;5014990;28;20077;-83
2022/10/26 10:01:29;;;;;;;38.35;12.40;;;22.00;89.30;;;;;;5014846;28;20053;-84
2022/10/26 10:04:15;;;;;;;44.20;14.93;;;21.90;89.90;;;;;;5015770;28;20036;-84
2022/10/26 10:06:43;;;;;;;35.30;12.18;;;21.90;90.00;;;;;;5013968;28;20036;-81
2022/10/26 10:09:19;;;;;;;57.75;14.38;;;22.00;89.50;;;;;;5017113;28;20025;-84
2022/10/26 10:11:56;;;;;;;37.03;12.18;;;22.00;89.50;;;;;;5020617;28;20049;-81
2022/10/26 10:14:26;;;;;;;39.75;11.88;;;22.00;89.80;;;;;;5022213;28;20029;-83
2022/10/26 10:17:01;;;;;;;33.38;12.55;;;22.10;89.20;;;;;;5019824;28;20030;-82
2022/10/26 10:19:28;;;;;;;45.28;12.68;;;22.20;89.10;;;;;;5019373;28;20050;-83
2022/10/26 10:21:59;;;;;;;43.05;12.50;;;22.20;89.20;;;;;;5018590;28;20030;-84
2022/10/26 10:24:32;;;;;;;36.80;11.32;;;22.20;89.30;;;;;;5019461;28;20467;-83
2022/10/26 10:26:59;;;;;;;;;;;22.30;89.40;;;;;;5021164;28;20054;-83
2022/10/26 10:29:27;;;;;;;31.35;11.98;;;22.30;88.90;;;;;;5021754;28;20023;-83
2022/10/26 10:31:59;;;;;;;28.23;9.50;;;22.40;88.70;;;;;;5018295;28;20034;-80
2022/10/26 10:34:25;;;;;;;37.72;11.15;;;22.50;89.00;;;;;;5018235;28;20483;-83
2022/10/26 10:36:51;;;;;;;38.38;12.32;;;22.60;88.70;;;;;;5019787;28;20034;-84
2022/10/26 10:39:38;;;;;;;29.40;10.57;;;22.70;88.60;;;;;;5017900;28;20026;-83
2022/10/26 10:42:20;;;;;;;32.63;11.50;;;22.80;88.40;;;;;;5018089;28;20018;-83
2022/10/26 10:44:51;;;;;;;30.60;10.88;;;22.90;88.10;;;;;;5025535;28;20021;-82
2022/10/26 10:47:26;;;;;;;43.60;12.25;;;23.00;87.30;;;;;;5030648;28;20089;-82
2022/10/26 10:49:56;;;;;;;45.38;12.68;;;23.10;86.60;;;;;;5027366;28;20022;-82
2022/10/26 10:52:31;;;;;;;39.08;10.82;;;23.20;86.40;;;;;;5025090;28;20059;-83
2022/10/26 10:55:12;;;;;;;44.63;12.63;;;23.30;86.80;;;;;;5024400;28;20022;-81
2022/10/26 10:58:00;;;;;;;48.08;13.00;;;23.40;85.80;;;;;;5024786;28;20026;-79
2022/10/26 11:00:26;;;;;;;51.42;12.32;;;23.50;85.80;;;;;;5024273;28;20384;-81
2022/10/26 11:03:00;;;;;;;53.58;14.05;;;23.50;85.20;;;;;;5022290;28;20026;-82
2022/10/26 11:05:32;;;;;;;32.25;10.70;;;23.60;84.90;;;;;;5018519;28;20099;-81
2022/10/26 11:08:03;;;;;;;34.33;11.40;;;23.70;84.70;;;;;;5023202;28;20558;-81
2022/10/26 11:10:39;;;;;;;43.60;11.60;;;23.80;84.50;;;;;;5023156;28;20041;-80
2022/10/26 11:13:40;;;;;;;26.88;10.15;;;23.80;84.10;;;;;;5024480;28;20080;-80
2022/10/26 11:16:17;;;;;;;51.42;12.77;;;23.90;83.50;;;;;;4986954;28;20037;-82
2022/10/26 11:19:15;;;;;;;40.35;11.85;;;24.00;83.10;;;;;;5015463;28;20111;-84
2022/10/26 11:21:43;;;;;;;35.90;11.77;;;24.10;83.60;;;;;;5015320;28;20097;-83
2022/10/26 11:24:33;;;;;;;36.08;10.88;;;24.20;82.40;;;;;;5018622;28;20022;-83
2022/10/26 11:27:01;;;;;;;46.17;11.15;;;24.30;82.00;;;;;;5021039;28;20049;-83
2022/10/26 11:29:27;;;;;;;42.60;11.52;;;24.30;81.90;;;;;;5022638;28;20038;-84
2022/10/26 11:31:59;;;;;;;30.23;10.05;;;24.40;81.20;;;;;;5019776;28;20093;-81
2022/10/26 11:34:28;;;;;;;38.22;10.20;;;24.50;80.90;;;;;;5024874;28;20577;-85
2022/10/26 11:37:33;;;;;;;34.22;10.38;;;24.50;80.90;;;;;;5024725;28;20022;-84
2022/10/26 11:40:23;;;;;;;35.63;11.43;;;24.50;81.20;;;;;;4957843;29;20481;-85
2022/10/26 11:43:12;;;;;;;42.40;11.57;;;24.60;80.90;;;;;;5013590;28;20038;-87
2022/10/26 11:45:42;;;;;;;38.00;10.38;;;24.70;80.90;;;;;;5017093;28;20026;-85
2022/10/26 11:48:22;;;;;;;48.92;11.13;;;24.70;79.60;;;;;;5018416;28;20340;-86
2022/10/26 11:50:52;;;;;;;36.47;10.38;;;24.80;79.50;;;;;;5016560;28;20030;-83
2022/10/26 11:53:22;;;;;;;38.95;11.18;;;24.90;79.70;;;;;;5016311;28;20033;-88
2022/10/26 11:55:53;;;;;;;42.25;11.05;;;24.90;78.80;;;;;;5017171;28;20022;-84
2022/10/26 11:58:23;;;;;;;42.63;10.25;;;25.00;78.10;;;;;;5018618;28;20049;-87
2022/10/26 12:01:00;;;;;;;41.33;11.45;;;25.10;78.30;;;;;;5018765;28;20056;-85
2022/10/26 12:03:31;;;;;;;38.08;11.23;;;25.20;77.60;;;;;;5019107;28;20034;-86
2022/10/26 12:05:56;;;;;;;47.97;11.50;;;25.20;77.40;;;;;;5022002;28;20029;-86
2022/10/26 12:08:41;;;;;;;32.72;10.07;;;25.30;77.20;;;;;;5024745;28;20029;-83
2022/10/26 12:11:27;;;;;;;49.92;13.05;;;25.30;77.40;;;;;;5016548;28;20080;-84
2022/10/26 12:14:06;;;;;;;51.40;11.85;;;25.40;76.90;;;;;;5016288;28;20026;-84
2022/10/26 12:16:38;;;;;;;50.47;12.18;;;25.50;76.80;;;;;;5015559;28;20074;-84
2022/10/26 12:19:25;;;;;;;48.80;11.43;;;25.50;76.60;;;;;;5015457;28;20026;-84
2022/10/26 12:21:53;;;;;;;45.15;11.55;;;25.70;75.90;;;;;;5016157;28;20494;-83
2022/10/26 12:24:21;;;;;;;36.20;12.13;;;25.70;76.00;;;;;;5016700;28;20061;-84
2022/10/26 12:26:55;;;;;;;40.30;11.95;;;25.70;75.60;;;;;;5015450;28;20058;-83
2022/10/26 12:29:37;;;;;;;33.92;10.45;;;25.80;75.40;;;;;;5016621;28;20030;-86
2022/10/26 12:32:24;;;;;;;34.60;10.32;;;25.90;75.20;;;;;;5015893;28;20034;-85
2022/10/26 12:34:53;;;;;;;39.90;10.65;;;25.90;74.90;;;;;;5016402;28;20014;-84
2022/10/26 12:37:45;;;;;;;39.55;11.20;;;26.00;74.70;;;;;;5016615;28;20026;-83
2022/10/26 12:40:29;;;;;;;44.67;11.18;;;26.00;74.50;;;;;;5015151;28;20112;-86
2022/10/26 12:42:55;;;;;;;37.95;9.77;;;26.10;73.60;;;;;;5015056;28;20546;-85
2022/10/26 12:45:21;;;;;;;39.90;8.93;;;26.10;74.30;;;;;;5016203;28;20022;-85
2022/10/26 12:47:47;;;;;;;38.65;10.27;;;26.00;74.00;;;;;;5016524;28;20022;-85